Time;durP1;ratioP1;P1;durP2;ratioP2;P2;SDS_P1;SDS_P2;PMS_P1;PMS_P2;Temp;Humidity;BMP_temperature;BMP_pressure;BME280_temperature;BME280_humidity;BME280_pressure;Samples;Min_cycle;Max_cycle;Signal;HPM_P1;HPM_P2
2023/01/08 00:00:49;;;;;;;16.60;11.63;;;3.00;99.90;;;;;;5022341;28;20216;-43
2023/01/08 00:03:14;;;;;;;16.20;11.43;;;3.00;99.90;;;;;;5026747;28;20236;-41
2023/01/08 00:05:41;;;;;;;15.50;11.17;;;2.90;99.90;;;;;;5012304;28;20221;-42
2023/01/08 00:08:10;;;;;;;12.60;9.90;;;3.00;99.90;;;;;;5031716;28;20232;-43
2023/01/08 00:10:37;;;;;;;15.47;10.57;;;3.00;99.90;;;;;;5038408;28;20189;-42
2023/01/08 00:13:03;;;;;;;13.93;10.60;;;3.00;99.90;;;;;;5045948;28;20178;-42
2023/01/08 00:15:29;;;;;;;12.73;9.97;;;3.10;99.90;;;;;;5029171;28;20253;-42
2023/01/08 00:17:56;;;;;;;13.13;9.80;;;3.10;99.90;;;;;;5037908;28;20178;-43
2023/01/08 00:20:23;;;;;;;12.97;10.27;;;3.10;99.90;;;;;;5031688;28;20178;-42
2023/01/08 00:22:49;;;;;;;14.57;10.27;;;3.10;99.90;;;;;;5030805;28;20209;-42
2023/01/08 00:25:16;;;;;;;13.40;10.50;;;3.10;99.90;;;;;;5006783;28;20270;-41
2023/01/08 00:27:41;;;;;;;15.40;10.87;;;3.10;99.90;;;;;;5032768;28;20173;-42
2023/01/08 00:30:08;;;;;;;15.07;10.23;;;3.20;99.90;;;;;;5026363;28;20203;-41
2023/01/08 00:32:34;;;;;;;15.00;10.23;;;3.20;99.90;;;;;;5059323;28;20178;-42
2023/01/08 00:35:02;;;;;;;14.90;9.63;;;3.20;99.90;;;;;;5039181;28;20194;-42
2023/01/08 00:37:28;;;;;;;13.43;9.97;;;3.20;99.90;;;;;;5033592;28;20197;-42
2023/01/08 00:39:54;;;;;;;15.00;10.33;;;3.20;99.90;;;;;;5026292;28;20545;-42
2023/01/08 00:42:20;;;;;;;12.43;9.53;;;3.20;99.90;;;;;;5025324;28;20178;-40
2023/01/08 00:44:46;;;;;;;15.47;9.83;;;3.20;99.90;;;;;;5032119;28;20213;-41
2023/01/08 00:47:12;;;;;;;11.70;9.30;;;3.10;99.90;;;;;;5049707;28;20192;-42
2023/01/08 00:49:38;;;;;;;12.73;9.27;;;3.10;99.90;;;;;;4998754;28;20289;-42
2023/01/08 00:52:04;;;;;;;15.40;10.63;;;3.10;99.90;;;;;;5029980;28;20174;-42
2023/01/08 00:54:30;;;;;;;14.83;10.30;;;3.10;99.90;;;;;;5015341;28;20200;-42
2023/01/08 00:56:56;;;;;;;13.00;10.23;;;3.10;99.90;;;;;;5023813;28;20185;-42
2023/01/08 00:59:22;;;;;;;12.73;9.73;;;3.10;99.90;;;;;;5045805;28;20182;-40
2023/01/08 01:01:47;;;;;;;12.13;9.73;;;3.10;99.90;;;;;;5017843;28;20200;-42
2023/01/08 01:04:16;;;;;;;13.37;9.30;;;3.10;99.90;;;;;;5031413;28;20178;-43
2023/01/08 01:06:42;;;;;;;14.67;10.40;;;3.00;99.90;;;;;;5024744;28;20232;-43
2023/01/08 01:09:08;;;;;;;13.83;10.20;;;3.00;99.90;;;;;;5025364;28;20225;-42
2023/01/08 01:11:34;;;;;;;14.37;10.00;;;3.00;99.90;;;;;;5030071;28;20194;-42
2023/01/08 01:14:00;;;;;;;15.07;11.00;;;3.10;99.90;;;;;;5043576;28;20182;-42
2023/01/08 01:16:26;;;;;;;14.57;10.63;;;3.10;99.90;;;;;;5051362;28;20201;-42
2023/01/08 01:18:53;;;;;;;12.33;9.60;;;3.10;99.90;;;;;;5016760;28;20265;-41
2023/01/08 01:21:25;;;;;;;13.50;9.43;;;3.10;99.90;;;;;;5048477;28;20201;-42
2023/01/08 01:23:53;;;;;;;14.03;9.83;;;3.10;99.90;;;;;;5019150;28;20204;-42
2023/01/08 01:26:21;;;;;;;13.20;10.17;;;3.10;99.90;;;;;;5024090;28;20198;-42
2023/01/08 01:28:51;;;;;;;14.13;8.93;;;3.10;99.90;;;;;;5028103;28;20207;-41
2023/01/08 01:31:18;;;;;;;11.77;9.33;;;3.10;99.90;;;;;;5060849;28;20173;-42
2023/01/08 01:33:45;;;;;;;14.77;9.77;;;3.10;99.90;;;;;;5057203;28;20176;-43
2023/01/08 01:36:12;;;;;;;13.97;9.53;;;3.10;99.90;;;;;;5046343;28;20198;-41
2023/01/08 01:38:41;;;;;;;13.47;10.27;;;3.00;99.90;;;;;;5035399;28;20200;-42
2023/01/08 01:41:08;;;;;;;12.73;9.50;;;3.00;99.90;;;;;;5020147;28;20182;-42
2023/01/08 01:43:39;;;;;;;14.73;9.63;;;2.90;99.90;;;;;;5045058;28;20178;-42
2023/01/08 01:46:31;;;;;;;14.70;10.70;;;2.90;99.90;;;;;;5045745;28;20227;-42
2023/01/08 01:49:01;;;;;;;14.63;10.70;;;2.80;99.90;;;;;;5019131;28;20220;-43
2023/01/08 01:51:31;;;;;;;14.53;9.50;;;2.80;99.90;;;;;;5031445;28;20196;-42
2023/01/08 01:53:58;;;;;;;14.93;10.60;;;2.70;99.90;;;;;;5049192;28;20181;-42
2023/01/08 01:56:27;;;;;;;14.13;9.70;;;2.60;99.90;;;;;;5042804;28;20214;-40
2023/01/08 01:58:53;;;;;;;15.07;10.33;;;2.60;99.90;;;;;;5029869;28;20178;-42
2023/01/08 02:01:19;;;;;;;13.27;10.10;;;2.70;99.90;;;;;;5036729;28;20181;-42
2023/01/08 02:03:45;;;;;;;15.13;10.23;;;2.70;99.90;;;;;;5047013;28;20236;-43
2023/01/08 02:06:45;;;;;;;14.57;10.97;;;2.80;99.90;;;;;;5050666;28;20202;-41
2023/01/08 02:09:22;;;;;;;16.57;10.83;;;2.80;99.90;;;;;;5034026;28;20213;-42
2023/01/08 02:12:15;;;;;;;15.47;10.40;;;2.90;99.90;;;;;;5015785;28;20181;-42
2023/01/08 02:14:49;;;;;;;16.63;10.80;;;3.00;99.90;;;;;;5018443;28;20221;-42
2023/01/08 02:17:43;;;;;;;12.87;9.80;;;3.00;99.90;;;;;;5022242;28;20178;-42
2023/01/08 02:20:15;;;;;;;13.43;8.93;;;3.00;99.90;;;;;;5019773;28;20236;-42
2023/01/08 02:22:50;;;;;;;12.77;10.17;;;3.00;99.90;;;;;;5023285;28;20205;-42
2023/01/08 02:25:41;;;;;;;13.43;9.23;;;3.00;99.90;;;;;;5041539;28;20194;-42
2023/01/08 02:28:11;;;;;;;13.97;10.07;;;3.10;99.90;;;;;;5017135;28;20623;-42
2023/01/08 02:30:37;;;;;;;13.33;9.70;;;3.10;99.90;;;;;;5036037;28;20196;-42
2023/01/08 02:33:02;;;;;;;13.43;10.00;;;3.10;99.90;;;;;;5045610;28;20169;-39
2023/01/08 02:36:14;;;;;;;16.17;10.67;;;3.20;99.90;;;;;;5051241;28;20202;-42
2023/01/08 02:38:54;;;;;;;15.57;9.93;;;3.20;99.90;;;;;;5034332;28;20178;-43
2023/01/08 02:41:28;;;;;;;13.13;10.10;;;3.20;99.90;;;;;;5022356;28;20257;-42
2023/01/08 02:43:57;;;;;;;13.93;9.97;;;3.20;99.90;;;;;;5052012;28;20193;-42
2023/01/08 02:46:30;;;;;;;13.53;9.83;;;3.20;99.90;;;;;;4998708;28;20206;-40
2023/01/08 02:49:04;;;;;;;16.27;10.10;;;3.30;99.90;;;;;;5032019;28;20267;-41
2023/01/08 02:51:34;;;;;;;14.70;9.67;;;3.20;99.90;;;;;;5014489;28;20175;-42
2023/01/08 02:54:16;;;;;;;13.43;10.03;;;3.20;99.90;;;;;;5032545;28;20174;-41
2023/01/08 02:56:47;;;;;;;15.57;10.20;;;3.10;99.90;;;;;;5006099;28;20209;-42
2023/01/08 02:59:15;;;;;;;14.97;10.30;;;3.00;99.90;;;;;;5013584;28;20185;-41
2023/01/08 03:01:42;;;;;;;14.40;9.93;;;3.10;99.90;;;;;;5012914;28;20186;-42
2023/01/08 03:04:14;;;;;;;14.00;9.67;;;3.10;99.90;;;;;;5023792;28;20174;-42
2023/01/08 03:06:41;;;;;;;14.13;9.73;;;3.10;99.90;;;;;;5032565;28;20304;-42
2023/01/08 03:09:07;;;;;;;16.07;10.33;;;3.10;99.90;;;;;;5049244;28;20198;-41
2023/01/08 03:11:45;;;;;;;14.83;10.23;;;3.10;99.90;;;;;;5032352;28;20194;-42
2023/01/08 03:14:36;;;;;;;15.53;9.87;;;3.10;99.90;;;;;;5028548;28;20213;-43
2023/01/08 03:17:07;;;;;;;15.93;10.00;;;3.10;99.90;;;;;;5017370;28;20181;-43
2023/01/08 03:19:48;;;;;;;14.80;9.80;;;3.10;99.90;;;;;;5046532;28;20186;-42
2023/01/08 03:22:16;;;;;;;12.43;9.83;;;3.10;99.90;;;;;;5017590;28;20205;-42
2023/01/08 03:24:45;;;;;;;11.93;8.77;;;3.10;99.90;;;;;;5051022;28;20177;-43
2023/01/08 03:27:16;;;;;;;12.53;9.30;;;3.10;99.90;;;;;;5049088;28;20193;-42
2023/01/08 03:29:44;;;;;;;13.13;9.27;;;3.00;99.90;;;;;;5005148;28;20209;-42
2023/01/08 03:32:16;;;;;;;11.73;9.20;;;3.00;99.90;;;;;;5012460;28;20183;-42
2023/01/08 03:34:44;;;;;;;13.10;9.67;;;2.80;99.90;;;;;;5015582;28;20186;-42
2023/01/08 03:37:12;;;;;;;16.13;10.57;;;2.80;99.90;;;;;;5042487;28;20190;-41
2023/01/08 03:39:46;;;;;;;14.60;10.03;;;2.80;99.90;;;;;;5031956;28;20190;-41
2023/01/08 03:42:15;;;;;;;14.50;10.13;;;2.80;99.90;;;;;;5045858;28;20560;-42
2023/01/08 03:44:41;;;;;;;16.50;10.40;;;2.80;99.90;;;;;;5026150;28;20186;-43
2023/01/08 03:47:09;;;;;;;16.57;9.70;;;2.80;99.90;;;;;;5031229;28;20191;-40
2023/01/08 03:49:37;;;;;;;16.03;9.23;;;2.90;99.90;;;;;;5021658;28;20210;-42
2023/01/08 03:52:03;;;;;;;12.87;9.17;;;2.80;99.90;;;;;;5041322;28;20190;-41
2023/01/08 03:54:31;;;;;;;13.93;8.93;;;2.80;99.90;;;;;;5016708;28;20284;-42
2023/01/08 03:56:57;;;;;;;12.93;8.90;;;2.80;99.90;;;;;;5006614;28;20178;-43
2023/01/08 03:59:23;;;;;;;11.17;8.50;;;2.80;99.90;;;;;;5021114;28;20248;-40
2023/01/08 04:01:49;;;;;;;12.73;9.30;;;2.80;99.90;;;;;;5047637;28;20189;-42
2023/01/08 04:04:16;;;;;;;12.83;9.07;;;2.80;99.90;;;;;;5046208;28;20185;-39
2023/01/08 04:06:41;;;;;;;11.60;8.63;;;2.90;99.90;;;;;;5013149;28;20202;-43
2023/01/08 04:09:07;;;;;;;14.33;9.60;;;2.90;99.90;;;;;;5014047;28;20205;-42
2023/01/08 04:11:34;;;;;;;11.10;8.83;;;2.90;99.90;;;;;;5019497;28;20185;-41
2023/01/08 04:13:59;;;;;;;13.70;9.40;;;2.90;99.90;;;;;;5031085;28;20178;-42
2023/01/08 04:16:25;;;;;;;12.47;8.80;;;3.00;99.90;;;;;;5042657;28;20352;-42
2023/01/08 04:18:51;;;;;;;14.53;9.50;;;3.00;99.90;;;;;;5030294;28;20183;-42
2023/01/08 04:21:17;;;;;;;12.83;9.57;;;3.10;99.90;;;;;;5012874;28;20217;-42
2023/01/08 04:23:43;;;;;;;12.10;9.03;;;3.10;99.90;;;;;;5012643;28;20237;-42
2023/01/08 04:26:09;;;;;;;12.20;9.30;;;3.10;99.90;;;;;;5028565;28;20209;-42
2023/01/08 04:28:35;;;;;;;12.37;8.27;;;3.10;99.90;;;;;;5031289;28;20209;-42
2023/01/08 04:31:06;;;;;;;12.10;8.80;;;3.10;99.90;;;;;;5054458;28;20177;-42
2023/01/08 04:33:32;;;;;;;11.67;8.73;;;3.10;99.90;;;;;;5024487;28;20286;-43
2023/01/08 04:35:57;;;;;;;12.73;9.60;;;3.20;99.90;;;;;;5031886;28;20336;-42
2023/01/08 04:38:23;;;;;;;12.60;9.57;;;3.20;99.90;;;;;;5031134;28;20189;-42
2023/01/08 04:40:49;;;;;;;13.13;9.67;;;3.30;99.90;;;;;;4996758;28;20328;-43
2023/01/08 04:43:15;;;;;;;14.53;9.83;;;3.30;99.90;;;;;;5006891;28;20181;-42
2023/01/08 04:45:40;;;;;;;13.97;9.80;;;3.20;99.90;;;;;;5050083;28;20206;-42
2023/01/08 04:48:06;;;;;;;11.90;9.43;;;3.30;99.90;;;;;;5031860;28;20391;-43
2023/01/08 04:50:32;;;;;;;16.23;10.13;;;3.30;99.90;;;;;;5015759;28;20182;-43
2023/01/08 04:52:59;;;;;;;12.87;9.17;;;3.30;99.90;;;;;;5031627;28;20184;-43
2023/01/08 04:55:25;;;;;;;13.10;9.23;;;3.30;99.90;;;;;;5025298;28;20193;-42
2023/01/08 04:57:50;;;;;;;13.90;10.03;;;3.30;99.90;;;;;;5021399;28;20182;-43
2023/01/08 05:00:16;;;;;;;19.53;9.77;;;3.40;99.90;;;;;;5044793;28;20195;-43
2023/01/08 05:02:42;;;;;;;15.33;11.13;;;3.40;99.90;;;;;;5039979;28;20234;-42
2023/01/08 05:05:08;;;;;;;12.07;9.90;;;3.40;99.90;;;;;;5053928;28;20202;-43
2023/01/08 05:07:34;;;;;;;13.13;9.87;;;3.50;99.90;;;;;;5035179;28;20171;-40
2023/01/08 05:09:59;;;;;;;11.87;10.13;;;3.50;99.90;;;;;;5000523;28;20202;-42
2023/01/08 05:12:25;;;;;;;15.20;11.03;;;3.50;99.90;;;;;;5042743;28;20178;-43
2023/01/08 05:14:51;;;;;;;14.57;10.30;;;3.50;99.90;;;;;;5016880;28;20203;-43
2023/01/08 05:17:16;;;;;;;13.50;10.47;;;3.60;99.90;;;;;;5031634;28;20194;-43
2023/01/08 05:19:42;;;;;;;14.57;10.23;;;3.60;99.90;;;;;;5016643;28;20197;-41
2023/01/08 05:22:08;;;;;;;14.70;10.30;;;3.70;99.90;;;;;;5019859;28;20273;-43
2023/01/08 05:24:34;;;;;;;16.53;11.17;;;3.70;99.90;;;;;;5016104;28;20206;-43
2023/01/08 05:27:00;;;;;;;15.00;10.67;;;3.80;99.90;;;;;;5024653;28;20174;-43
2023/01/08 05:29:26;;;;;;;14.43;11.10;;;3.80;99.90;;;;;;5018771;28;20202;-43
2023/01/08 05:31:51;;;;;;;14.60;11.13;;;3.90;99.90;;;;;;5040263;28;20178;-43
2023/01/08 05:34:17;;;;;;;15.53;11.37;;;3.90;99.90;;;;;;5065210;28;20178;-43
2023/01/08 05:36:43;;;;;;;13.73;10.07;;;3.90;99.90;;;;;;5034746;28;20198;-42
2023/01/08 05:39:09;;;;;;;12.20;9.57;;;3.90;99.90;;;;;;5050843;28;20190;-44
2023/01/08 05:41:34;;;;;;;9.80;8.33;;;3.80;99.90;;;;;;5029633;28;20269;-43
2023/01/08 05:44:00;;;;;;;13.17;9.87;;;3.70;99.90;;;;;;5041288;28;20311;-42
2023/01/08 05:46:26;;;;;;;11.97;9.07;;;3.60;99.90;;;;;;5033054;28;20205;-42
2023/01/08 05:48:52;;;;;;;12.37;9.27;;;3.60;99.90;;;;;;5041837;28;20202;-42
2023/01/08 05:51:17;;;;;;;12.00;9.80;;;3.60;99.90;;;;;;5022209;28;20179;-44
2023/01/08 05:53:43;;;;;;;11.23;9.20;;;3.60;99.90;;;;;;5033415;28;20207;-43
2023/01/08 05:56:10;;;;;;;12.53;9.33;;;3.70;99.90;;;;;;5029929;28;20201;-40
2023/01/08 05:58:37;;;;;;;13.93;10.20;;;3.70;99.90;;;;;;5031196;28;20189;-42
2023/01/08 06:01:16;;;;;;;14.43;10.23;;;3.70;99.90;;;;;;5044270;28;20271;-43
2023/01/08 06:03:42;;;;;;;11.87;9.17;;;3.80;99.90;;;;;;5032293;28;20268;-43
2023/01/08 06:06:10;;;;;;;13.43;10.43;;;3.80;99.90;;;;;;5016169;28;20301;-41
2023/01/08 06:08:36;;;;;;;13.50;9.83;;;3.90;99.90;;;;;;5031611;28;20255;-43
2023/01/08 06:11:05;;;;;;;14.83;9.73;;;4.00;99.90;;;;;;5030073;28;20194;-42
2023/01/08 06:13:32;;;;;;;14.67;10.73;;;4.10;99.90;;;;;;5015037;28;20175;-43
2023/01/08 06:15:59;;;;;;;16.20;10.00;;;4.10;99.90;;;;;;5006948;28;20264;-37
2023/01/08 06:18:25;;;;;;;13.93;9.70;;;4.10;99.90;;;;;;5032582;28;20182;-41
2023/01/08 06:20:51;;;;;;;14.73;10.20;;;4.20;99.90;;;;;;5026739;28;20191;-44
2023/01/08 06:23:17;;;;;;;15.03;10.40;;;4.20;99.90;;;;;;5015153;28;20184;-42
2023/01/08 06:25:43;;;;;;;13.53;10.37;;;4.20;99.90;;;;;;5033841;28;20194;-43
2023/01/08 06:28:09;;;;;;;14.83;9.47;;;4.30;99.90;;;;;;5001662;28;20209;-41
2023/01/08 06:30:35;;;;;;;11.07;8.47;;;4.20;99.90;;;;;;5013666;28;20243;-44
2023/01/08 06:33:01;;;;;;;11.43;8.20;;;4.20;99.90;;;;;;5030369;28;20171;-43
2023/01/08 06:35:27;;;;;;;13.73;8.90;;;4.10;99.90;;;;;;5043588;28;20190;-41
2023/01/08 06:37:56;;;;;;;9.00;7.57;;;4.10;99.90;;;;;;5023390;28;20243;-43
2023/01/08 06:40:23;;;;;;;10.20;8.20;;;4.10;99.90;;;;;;5038879;28;20170;-43
2023/01/08 06:42:51;;;;;;;9.50;8.00;;;4.00;99.90;;;;;;5023765;28;20202;-44
2023/01/08 06:45:17;;;;;;;12.13;8.57;;;4.00;99.90;;;;;;5041498;28;20215;-43
2023/01/08 06:47:43;;;;;;;11.33;8.57;;;4.00;99.90;;;;;;5041642;28;20178;-42
2023/01/08 06:50:09;;;;;;;10.87;8.60;;;4.00;99.90;;;;;;5036591;28;20206;-44
2023/01/08 06:52:34;;;;;;;10.97;8.60;;;4.00;99.90;;;;;;5016485;28;20201;-43
2023/01/08 06:55:00;;;;;;;10.50;8.27;;;4.00;99.90;;;;;;5013291;28;20253;-43
2023/01/08 06:57:26;;;;;;;10.90;8.40;;;4.00;99.90;;;;;;5032357;28;20171;-43
2023/01/08 06:59:52;;;;;;;12.70;8.67;;;4.10;99.90;;;;;;5032619;28;20181;-43
2023/01/08 07:02:18;;;;;;;9.57;7.83;;;4.10;99.90;;;;;;5060245;28;20181;-42
2023/01/08 07:04:44;;;;;;;10.87;7.57;;;4.10;99.90;;;;;;5031004;28;20190;-42
2023/01/08 07:07:13;;;;;;;9.27;7.20;;;4.20;99.90;;;;;;5031245;28;20178;-43
2023/01/08 07:09:40;;;;;;;9.30;8.03;;;4.30;99.90;;;;;;5001277;28;20208;-40
2023/01/08 07:12:10;;;;;;;9.03;7.03;;;4.40;99.90;;;;;;5031463;28;20219;-42
2023/01/08 07:14:36;;;;;;;10.00;6.90;;;4.50;99.90;;;;;;5047163;28;20180;-42
2023/01/08 07:17:01;;;;;;;9.07;6.40;;;4.60;99.90;;;;;;5020896;28;20177;-42
2023/01/08 07:19:27;;;;;;;7.50;5.80;;;4.80;99.90;;;;;;5039720;28;20174;-41
2023/01/08 07:21:53;;;;;;;9.23;6.73;;;5.00;99.90;;;;;;5039610;28;20184;-39
2023/01/08 07:24:19;;;;;;;8.13;5.50;;;5.10;99.90;;;;;;5023414;28;20274;-38
2023/01/08 07:26:45;;;;;;;7.20;4.63;;;5.30;99.90;;;;;;5022967;28;20328;-42
2023/01/08 07:29:11;;;;;;;6.83;4.77;;;5.50;99.90;;;;;;5024191;28;20206;-40
2023/01/08 07:31:39;;;;;;;4.50;3.83;;;5.70;99.90;;;;;;5010209;28;20189;-40
2023/01/08 07:34:05;;;;;;;3.90;3.13;;;5.80;99.90;;;;;;5029025;28;20301;-42
2023/01/08 07:36:31;;;;;;;3.80;3.10;;;6.00;99.90;;;;;;5032195;28;20284;-42
2023/01/08 07:38:57;;;;;;;3.73;2.83;;;6.10;99.90;;;;;;5005763;28;20694;-42
2023/01/08 07:41:23;;;;;;;3.97;3.57;;;6.20;99.90;;;;;;5039160;28;20217;-42
2023/01/08 07:43:49;;;;;;;5.67;4.07;;;6.30;99.90;;;;;;5023122;28;20179;-42
2023/01/08 07:48:50;;;;;;;5.67;3.63;;;6.40;99.90;;;;;;5012604;28;20248;-43
2023/01/08 07:51:15;;;;;;;6.10;4.10;;;6.50;99.90;;;;;;5027439;28;20170;-38
2023/01/08 07:53:41;;;;;;;5.03;4.13;;;6.60;99.90;;;;;;4978240;28;20182;-39
2023/01/08 07:56:09;;;;;;;6.13;3.27;;;6.60;99.90;;;;;;5011844;28;20198;-42
2023/01/08 07:58:36;;;;;;;3.10;2.80;;;6.60;99.90;;;;;;5027114;28;20374;-37
2023/01/08 08:01:02;;;;;;;3.10;2.67;;;6.70;99.90;;;;;;5024204;28;20192;-37
2023/01/08 08:03:27;;;;;;;4.20;2.87;;;6.70;99.90;;;;;;5032920;28;20182;-37
2023/01/08 08:05:54;;;;;;;2.83;2.40;;;6.80;99.90;;;;;;5014710;28;20205;-37
2023/01/08 08:08:20;;;;;;;3.47;2.30;;;6.80;99.90;;;;;;5012912;28;20510;-38
2023/01/08 08:10:46;;;;;;;2.33;2.10;;;6.90;99.90;;;;;;5030424;28;20191;-38
2023/01/08 08:13:12;;;;;;;4.33;2.40;;;6.90;99.90;;;;;;5018305;28;20192;-37
2023/01/08 08:15:39;;;;;;;2.10;1.80;;;6.90;99.90;;;;;;5019250;28;20201;-44
2023/01/08 08:18:05;;;;;;;2.50;1.90;;;7.00;99.90;;;;;;5012661;28;20279;-36
2023/01/08 08:20:31;;;;;;;2.30;1.70;;;7.00;99.90;;;;;;5002369;28;20182;-39
2023/01/08 08:23:12;;;;;;;4.17;1.87;;;7.10;99.90;;;;;;5040931;28;20192;-37
2023/01/08 08:25:41;;;;;;;4.37;2.50;;;7.10;99.90;;;;;;5013921;28;20266;-37
2023/01/08 08:28:08;;;;;;;3.63;2.87;;;7.10;99.90;;;;;;5030585;28;20192;-37
2023/01/08 08:30:35;;;;;;;3.37;2.50;;;7.10;99.90;;;;;;5010314;28;20280;-39
2023/01/08 08:33:03;;;;;;;3.70;2.70;;;7.20;99.90;;;;;;5003013;28;20206;-38
2023/01/08 08:35:29;;;;;;;3.63;2.10;;;7.20;99.90;;;;;;5011217;28;20202;-38
2023/01/08 08:37:59;;;;;;;2.53;2.13;;;7.30;99.90;;;;;;5002709;28;20178;-42
2023/01/08 08:40:29;;;;;;;4.17;2.10;;;7.30;99.90;;;;;;5035328;28;20181;-36
2023/01/08 08:43:02;;;;;;;3.40;2.43;;;7.40;99.90;;;;;;5032438;28;20200;-39
2023/01/08 08:45:28;;;;;;;3.20;2.60;;;7.40;99.90;;;;;;4996224;28;20237;-39
2023/01/08 08:47:54;;;;;;;4.30;2.40;;;7.40;99.90;;;;;;5029518;28;20225;-38
2023/01/08 08:50:20;;;;;;;3.03;2.30;;;7.40;99.90;;;;;;4994698;28;20209;-39
2023/01/08 08:52:47;;;;;;;2.97;2.20;;;7.40;99.90;;;;;;5014650;28;20262;-36
2023/01/08 08:55:15;;;;;;;2.47;1.90;;;7.40;99.90;;;;;;5003567;28;20176;-37
2023/01/08 08:57:45;;;;;;;3.40;2.67;;;7.40;99.90;;;;;;5023203;28;20188;-37
2023/01/08 09:00:13;;;;;;;4.33;2.40;;;7.50;99.90;;;;;;5030105;28;20209;-36
2023/01/08 09:02:39;;;;;;;4.23;2.70;;;7.50;99.90;;;;;;5012356;28;20179;-39
2023/01/08 09:05:05;;;;;;;3.03;2.27;;;7.50;99.90;;;;;;5032683;28;20189;-39
2023/01/08 09:07:31;;;;;;;2.87;1.93;;;7.50;99.90;;;;;;5021030;28;20279;-38
2023/01/08 09:09:57;;;;;;;9.43;6.23;;;7.50;99.90;;;;;;5020686;28;20202;-37
2023/01/08 09:12:23;;;;;;;6.20;4.50;;;7.60;99.90;;;;;;5040184;28;20181;-36
2023/01/08 09:14:50;;;;;;;5.33;3.73;;;7.60;99.90;;;;;;5008874;28;20200;-38
2023/01/08 09:17:20;;;;;;;3.03;2.47;;;7.60;99.90;;;;;;5027381;28;20201;-38
2023/01/08 09:19:46;;;;;;;3.80;2.83;;;7.60;99.90;;;;;;5038705;28;20249;-37
2023/01/08 09:22:12;;;;;;;4.00;2.90;;;7.70;99.90;;;;;;5009879;28;20230;-39
2023/01/08 09:24:38;;;;;;;6.80;4.30;;;7.70;99.90;;;;;;5040620;28;20230;-36
2023/01/08 09:27:04;;;;;;;6.50;3.67;;;7.80;99.90;;;;;;5040854;28;20205;-38
2023/01/08 09:29:30;;;;;;;5.07;3.20;;;7.80;99.90;;;;;;5003323;28;20229;-37
2023/01/08 09:31:59;;;;;;;5.60;3.90;;;7.80;99.90;;;;;;5016902;28;20175;-38
2023/01/08 09:34:25;;;;;;;5.03;4.00;;;7.80;99.90;;;;;;5028505;28;20187;-37
2023/01/08 09:36:51;;;;;;;4.77;2.90;;;7.80;99.90;;;;;;4999726;28;20197;-37
2023/01/08 09:39:17;;;;;;;3.93;3.27;;;7.80;99.90;;;;;;5025359;28;20187;-37
2023/01/08 09:41:46;;;;;;;4.13;3.30;;;7.80;99.90;;;;;;5015554;28;20276;-40
2023/01/08 09:44:25;;;;;;;3.70;2.60;;;7.80;99.90;;;;;;5015678;28;20206;-39
2023/01/08 09:46:54;;;;;;;5.67;3.87;;;7.80;99.90;;;;;;5030595;28;20208;-39
2023/01/08 09:49:38;;;;;;;2.70;2.03;;;7.80;99.90;;;;;;5014334;28;20199;-36
2023/01/08 09:52:05;;;;;;;2.60;2.20;;;7.90;99.90;;;;;;5029991;28;20207;-36
2023/01/08 09:54:32;;;;;;;4.70;3.10;;;8.00;99.90;;;;;;5021989;28;20237;-37
2023/01/08 09:56:59;;;;;;;5.17;3.80;;;8.00;99.90;;;;;;5032546;28;20201;-38
2023/01/08 09:59:27;;;;;;;6.97;4.13;;;8.00;99.90;;;;;;5016252;28;20202;-38
2023/01/08 10:01:53;;;;;;;7.97;4.80;;;8.10;99.90;;;;;;5029371;28;20195;-37
2023/01/08 10:04:22;;;;;;;5.03;3.30;;;8.10;99.90;;;;;;4996887;28;20226;-38
2023/01/08 10:06:55;;;;;;;4.20;3.03;;;8.10;99.90;;;;;;5014536;28;20214;-36
2023/01/08 10:09:32;;;;;;;2.43;1.90;;;8.10;99.90;;;;;;5015136;28;20210;-40
2023/01/08 10:12:02;;;;;;;2.67;2.47;;;8.20;99.90;;;;;;5014471;28;20178;-39
2023/01/08 10:14:50;;;;;;;2.60;2.00;;;8.20;99.90;;;;;;5016440;28;20194;-37
2023/01/08 10:17:46;;;;;;;2.50;1.67;;;8.20;99.90;;;;;;5029744;28;20206;-39
2023/01/08 10:20:20;;;;;;;2.50;2.00;;;8.30;99.90;;;;;;5007789;28;20190;-42
2023/01/08 10:22:56;;;;;;;2.70;2.37;;;8.30;99.90;;;;;;5032280;28;20182;-39
2023/01/08 10:25:27;;;;;;;2.90;2.43;;;8.30;99.90;;;;;;5030667;28;20213;-38
2023/01/08 10:28:01;;;;;;;4.33;2.80;;;8.30;99.90;;;;;;5016344;28;20183;-38
2023/01/08 10:30:30;;;;;;;4.43;2.70;;;8.40;99.90;;;;;;5013141;28;20314;-41
2023/01/08 10:33:04;;;;;;;3.93;2.70;;;8.40;99.90;;;;;;4997649;28;20183;-39
2023/01/08 10:35:38;;;;;;;2.83;2.00;;;8.40;99.90;;;;;;5028876;28;20208;-39
2023/01/08 10:38:04;;;;;;;4.13;2.90;;;8.40;99.90;;;;;;5017163;28;20190;-38
2023/01/08 10:40:36;;;;;;;3.17;2.70;;;8.40;99.90;;;;;;4996907;28;20178;-37
2023/01/08 10:43:16;;;;;;;3.87;2.17;;;8.50;99.90;;;;;;5030459;28;20185;-37
2023/01/08 10:45:53;;;;;;;3.00;2.30;;;8.50;99.90;;;;;;5032249;28;20206;-39
2023/01/08 10:48:20;;;;;;;3.73;1.97;;;8.60;99.90;;;;;;5029318;28;20334;-39
2023/01/08 10:50:47;;;;;;;1.60;1.50;;;8.60;99.90;;;;;;5000837;28;20210;-36
2023/01/08 10:53:27;;;;;;;2.13;1.80;;;8.60;99.90;;;;;;5057853;28;20162;-37
2023/01/08 10:56:04;;;;;;;2.43;1.80;;;8.60;99.90;;;;;;5021587;28;20277;-37
2023/01/08 10:58:45;;;;;;;4.80;2.37;;;8.70;99.90;;;;;;4996553;28;20266;-43
2023/01/08 11:01:30;;;;;;;4.17;2.47;;;8.80;99.90;;;;;;5001010;28;20202;-37
2023/01/08 11:04:04;;;;;;;4.47;2.30;;;8.90;99.90;;;;;;5019537;28;21102;-36
2023/01/08 11:06:44;;;;;;;3.40;2.70;;;8.90;99.90;;;;;;5029123;28;20307;-40
2023/01/08 11:09:27;;;;;;;1.83;1.50;;;8.90;99.90;;;;;;5031984;28;20218;-37
2023/01/08 11:12:02;;;;;;;3.23;1.73;;;8.90;99.90;;;;;;5037264;28;20328;-40
2023/01/08 11:14:38;;;;;;;5.37;2.60;;;8.90;99.90;;;;;;5020376;28;20204;-37
2023/01/08 11:17:13;;;;;;;2.57;1.90;;;9.00;99.90;;;;;;5007576;28;20238;-41
2023/01/08 11:19:40;;;;;;;7.37;4.07;;;9.00;99.90;;;;;;5015326;28;20179;-39
2023/01/08 11:22:27;;;;;;;2.10;1.90;;;9.00;99.90;;;;;;5030262;28;20179;-38
2023/01/08 11:25:14;;;;;;;1.60;1.50;;;9.00;99.90;;;;;;5049791;28;20170;-36
2023/01/08 11:27:49;;;;;;;1.57;1.47;;;9.00;99.90;;;;;;5043805;28;20178;-36
2023/01/08 11:30:23;;;;;;;2.20;1.80;;;9.10;99.90;;;;;;5045256;28;20228;-36
2023/01/08 11:33:16;;;;;;;4.73;2.20;;;9.10;99.90;;;;;;5016368;28;20685;-39
2023/01/08 11:36:02;;;;;;;2.13;1.90;;;9.10;99.90;;;;;;5042608;28;20190;-36
2023/01/08 11:38:36;;;;;;;3.00;2.40;;;9.10;99.90;;;;;;5036358;28;20212;-38
2023/01/08 11:41:31;;;;;;;2.37;1.80;;;9.10;99.90;;;;;;5023222;28;20182;-36
2023/01/08 11:44:32;;;;;;;1.70;1.60;;;9.20;99.90;;;;;;5014304;28;20179;-37
2023/01/08 11:47:17;;;;;;;1.33;1.23;;;9.20;99.90;;;;;;5034902;28;20209;-36
2023/01/08 11:50:01;;;;;;;1.73;1.30;;;9.20;99.90;;;;;;5030888;28;20226;-36
2023/01/08 11:53:02;;;;;;;1.90;1.43;;;9.20;99.90;;;;;;4998389;28;20236;-39
2023/01/08 11:55:40;;;;;;;13.57;5.77;;;9.30;99.90;;;;;;5031882;28;20201;-41
2023/01/08 11:58:31;;;;;;;5.70;3.97;;;9.30;99.90;;;;;;5012782;28;20178;-36
2023/01/08 12:01:19;;;;;;;4.20;2.63;;;9.30;99.90;;;;;;5012885;28;20193;-39
2023/01/08 12:04:03;;;;;;;2.53;1.70;;;9.30;99.90;;;;;;5000293;28;20630;-40
2023/01/08 12:06:52;;;;;;;1.67;1.50;;;9.30;99.90;;;;;;5029240;28;20295;-40
2023/01/08 12:09:46;;;;;;;1.77;1.40;;;9.40;99.90;;;;;;5029492;28;20201;-37
2023/01/08 12:12:17;;;;;;;1.50;1.20;;;9.30;99.90;;;;;;5023891;28;20174;-40
2023/01/08 12:15:07;;;;;;;1.43;1.20;;;9.30;99.90;;;;;;5043276;28;20170;-42
2023/01/08 12:18:16;;;;;;;1.70;1.40;;;9.30;99.90;;;;;;5012850;28;20183;-37
2023/01/08 12:21:02;;;;;;;1.57;1.47;;;9.30;99.90;;;;;;4992012;28;20206;-38
2023/01/08 12:23:39;;;;;;;2.00;1.50;;;9.40;99.90;;;;;;5014478;28;20260;-37
2023/01/08 12:26:28;;;;;;;3.13;2.23;;;9.40;99.90;;;;;;5012389;28;20209;-37
2023/01/08 12:29:25;;;;;;;5.03;2.80;;;9.40;99.90;;;;;;5023414;28;20202;-39
2023/01/08 12:32:21;;;;;;;5.03;3.23;;;9.50;99.90;;;;;;4990459;28;20183;-36
2023/01/08 12:35:01;;;;;;;5.20;3.13;;;9.50;99.90;;;;;;4984811;28;20183;-40
2023/01/08 12:37:35;;;;;;;3.10;2.33;;;9.50;99.90;;;;;;5027109;28;20619;-37
2023/01/08 12:40:24;;;;;;;1.30;1.10;;;9.50;99.90;;;;;;5010648;28;20178;-36
2023/01/08 12:42:50;;;;;;;1.20;1.10;;;9.50;99.90;;;;;;5028023;28;20212;-38
2023/01/08 12:45:26;;;;;;;1.13;1.03;;;9.50;99.90;;;;;;4994349;28;20197;-38
2023/01/08 12:47:57;;;;;;;1.33;1.17;;;9.50;99.90;;;;;;4957392;28;1123543;-36
2023/01/08 12:50:50;;;;;;;1.80;1.23;;;9.40;99.90;;;;;;5012801;28;20213;-39
2023/01/08 12:53:34;;;;;;;2.50;1.90;;;9.50;99.90;;;;;;4996462;28;20189;-40
2023/01/08 12:56:13;;;;;;;2.07;1.80;;;9.40;99.90;;;;;;4982719;28;20210;-39
2023/01/08 12:58:45;;;;;;;1.50;1.40;;;9.50;99.90;;;;;;5028815;28;20208;-37
2023/01/08 13:01:29;;;;;;;2.40;1.87;;;9.50;99.90;;;;;;5030417;28;20187;-39
2023/01/08 13:03:57;;;;;;;2.13;1.90;;;9.50;99.90;;;;;;5004200;28;20174;-37
2023/01/08 13:06:23;;;;;;;2.90;2.13;;;9.50;99.90;;;;;;5011903;28;20249;-38
2023/01/08 13:08:59;;;;;;;4.03;3.00;;;9.40;99.90;;;;;;5012583;28;20251;-40